Time;durP1;ratioP1;P1;durP2;ratioP2;P2;SDS_P1;SDS_P2;PMS_P1;PMS_P2;Temp;Humidity;BMP_temperature;BMP_pressure;BME280_temperature;BME280_humidity;BME280_pressure;Samples;Min_cycle;Max_cycle;Signal;HPM_P1;HPM_P2
2021/10/19 00:02:20;;;;;;;54.23;38.07;;;;;;;;;;768718;182;919765;-63
2021/10/19 00:04:46;;;;;;;56.80;36.37;;;;;;;;;;767794;182;920485;-64
2021/10/19 00:07:12;;;;;;;75.30;37.97;;;;;;;;;;768156;182;918894;-64
2021/10/19 00:09:38;;;;;;;63.53;35.73;;;;;;;;;;770676;182;919072;-63
2021/10/19 00:12:04;;;;;;;58.20;36.37;;;;;;;;;;764512;182;919572;-63
2021/10/19 00:14:30;;;;;;;56.30;37.27;;;;;;;;;;768537;180;920374;-62
2021/10/19 00:16:55;;;;;;;63.15;36.13;;;;;;;;;;771160;182;918947;-64
2021/10/19 00:19:21;;;;;;;56.97;34.97;;;;;;;;;;774710;182;919990;-64
2021/10/19 00:21:47;;;;;;;52.25;33.75;;;;;;;;;;768952;182;1020904;-62
2021/10/19 00:24:13;;;;;;;63.13;35.43;;;;;;;;;;764359;182;1020330;-63
2021/10/19 00:26:39;;;;;;;53.43;33.83;;;;;;;;;;763734;182;2147015;-64
2021/10/19 00:29:05;;;;;;;52.33;31.67;;;;;;;;;;766548;182;919513;-64
2021/10/19 00:31:31;;;;;;;47.47;32.40;;;;;;;;;;763793;181;919434;-64
2021/10/19 00:33:56;;;;;;;51.40;35.60;;;;;;;;;;766660;182;920777;-63
2021/10/19 00:36:22;;;;;;;47.30;31.93;;;;;;;;;;764715;182;919351;-65
2021/10/19 00:38:48;;;;;;;50.73;32.07;;;;;;;;;;765428;182;932293;-63
2021/10/19 00:41:14;;;;;;;49.60;30.90;;;;;;;;;;766593;182;919064;-64
2021/10/19 00:43:40;;;;;;;46.83;30.13;;;;;;;;;;773822;182;918890;-63
2021/10/19 00:46:06;;;;;;;47.73;31.50;;;;;;;;;;768636;182;919071;-64
2021/10/19 00:48:32;;;;;;;50.30;33.47;;;;;;;;;;770140;182;918220;-64
2021/10/19 00:50:57;;;;;;;46.63;30.20;;;;;;;;;;768276;182;920191;-63
2021/10/19 00:53:23;;;;;;;48.03;28.53;;;;;;;;;;768043;182;921309;-64
2021/10/19 00:55:49;;;;;;;41.90;29.20;;;;;;;;;;765730;182;922587;-65
2021/10/19 00:58:15;;;;;;;43.20;31.07;;;;;;;;;;773672;182;919603;-64
2021/10/19 01:00:41;;;;;;;47.37;32.00;;;;;;;;;;769220;182;919509;-65
2021/10/19 01:03:07;;;;;;;42.23;29.37;;;;;;;;;;768193;182;918616;-64
2021/10/19 01:05:33;;;;;;;43.07;29.00;;;;;;;;;;769456;179;918968;-64
2021/10/19 01:07:58;;;;;;;45.63;29.73;;;;;;;;;;772011;182;918600;-64
2021/10/19 01:10:24;;;;;;;50.10;32.17;;;;;;;;;;767498;182;926137;-65
2021/10/19 01:12:50;;;;;;;64.73;35.07;;;;;;;;;;767645;182;921460;-64
2021/10/19 01:15:16;;;;;;;43.78;30.80;;;;;;;;;;774964;182;920331;-64
2021/10/19 01:17:42;;;;;;;46.73;29.47;;;;;;;;;;763070;182;1017858;-64
2021/10/19 01:20:23;;;;;;;46.70;30.37;;;;;;;;;;771076;181;922516;-64
2021/10/19 01:22:48;;;;;;;46.83;31.03;;;;;;;;;;769045;182;926933;-63
2021/10/19 01:25:16;;;;;;;43.57;27.57;;;;;;;;;;775948;180;915328;-64
2021/10/19 01:27:48;;;;;;;43.50;28.30;;;;;;;;;;772302;181;919324;-64
2021/10/19 01:30:14;;;;;;;41.70;28.33;;;;;;;;;;770503;181;919079;-64
2021/10/19 01:32:40;;;;;;;45.97;31.73;;;;;;;;;;771147;182;918197;-64
2021/10/19 01:35:06;;;;;;;52.42;31.62;;;;;;;;;;771348;182;920961;-64
2021/10/19 01:37:32;;;;;;;51.23;29.43;;;;;;;;;;769693;182;918365;-64
2021/10/19 01:39:58;;;;;;;44.07;28.20;;;;;;;;;;771191;182;918650;-63
2021/10/19 01:42:23;;;;;;;57.40;32.30;;;;;;;;;;774769;182;918484;-64
2021/10/19 01:44:49;;;;;;;54.97;32.57;;;;;;;;;;770799;182;921818;-63
2021/10/19 01:47:15;;;;;;;51.70;30.53;;;;;;;;;;768357;182;919052;-64
2021/10/19 01:49:41;;;;;;;51.17;30.70;;;;;;;;;;768590;182;918846;-64
2021/10/19 01:52:07;;;;;;;41.70;28.47;;;;;;;;;;761376;183;917891;-64
2021/10/19 01:54:33;;;;;;;44.50;27.23;;;;;;;;;;761515;182;1055828;-64
2021/10/19 01:56:59;;;;;;;46.87;27.40;;;;;;;;;;766123;182;953247;-64
2021/10/19 01:59:24;;;;;;;44.67;27.40;;;;;;;;;;776587;182;919371;-64
2021/10/19 02:01:50;;;;;;;39.40;25.00;;;;;;;;;;769096;182;919806;-63
2021/10/19 02:04:17;;;;;;;45.53;26.80;;;;;;;;;;769380;182;1020889;-63
2021/10/19 02:06:43;;;;;;;44.23;27.03;;;;;;;;;;774540;182;919458;-64
2021/10/19 02:09:09;;;;;;;47.10;28.47;;;;;;;;;;768032;182;918994;-64
2021/10/19 02:11:34;;;;;;;38.70;28.70;;;;;;;;;;769190;182;919783;-63
2021/10/19 02:14:00;;;;;;;42.20;26.77;;;;;;;;;;766633;182;919614;-61
2021/10/19 02:16:26;;;;;;;45.80;29.63;;;;;;;;;;766544;183;920969;-62
2021/10/19 02:18:52;;;;;;;47.90;30.13;;;;;;;;;;768351;182;920570;-63
2021/10/19 02:21:18;;;;;;;50.30;28.80;;;;;;;;;;769750;182;920628;-62
2021/10/19 02:23:44;;;;;;;55.13;31.07;;;;;;;;;;772861;182;920662;-64
2021/10/19 02:26:10;;;;;;;48.90;28.67;;;;;;;;;;764030;182;919322;-63
2021/10/19 02:28:36;;;;;;;51.17;29.37;;;;;;;;;;767226;182;912474;-63
2021/10/19 02:31:01;;;;;;;44.03;28.40;;;;;;;;;;773994;182;893123;-63
2021/10/19 02:33:27;;;;;;;44.87;29.17;;;;;;;;;;765587;182;916506;-64
2021/10/19 02:35:53;;;;;;;46.93;29.97;;;;;;;;;;769085;182;918968;-64
2021/10/19 02:38:19;;;;;;;42.87;27.43;;;;;;;;;;774260;181;918399;-64
2021/10/19 02:40:45;;;;;;;45.03;26.77;;;;;;;;;;771394;179;918888;-63
2021/10/19 02:43:11;;;;;;;45.57;27.93;;;;;;;;;;769829;182;920269;-63
2021/10/19 02:45:36;;;;;;;44.47;26.00;;;;;;;;;;767028;182;917690;-65
2021/10/19 02:48:02;;;;;;;36.33;23.13;;;;;;;;;;774146;182;916683;-64
2021/10/19 02:50:28;;;;;;;45.57;25.70;;;;;;;;;;769628;182;921359;-63
2021/10/19 02:52:54;;;;;;;37.13;23.00;;;;;;;;;;768838;182;921123;-64
2021/10/19 02:55:20;;;;;;;35.57;23.70;;;;;;;;;;770235;182;922094;-64
2021/10/19 02:57:46;;;;;;;38.40;24.50;;;;;;;;;;768768;182;919231;-63
2021/10/19 03:00:12;;;;;;;37.37;24.73;;;;;;;;;;765610;182;920796;-64
2021/10/19 03:02:38;;;;;;;36.07;24.07;;;;;;;;;;772509;181;915270;-63
2021/10/19 03:05:04;;;;;;;39.60;25.97;;;;;;;;;;766239;182;914355;-63
2021/10/19 03:07:30;;;;;;;43.77;27.17;;;;;;;;;;766737;182;916528;-64
2021/10/19 03:09:56;;;;;;;38.43;26.20;;;;;;;;;;770676;182;915607;-62
2021/10/19 03:12:22;;;;;;;44.17;25.60;;;;;;;;;;774746;182;919490;-63
2021/10/19 03:14:48;;;;;;;40.73;24.93;;;;;;;;;;768415;182;921264;-64
2021/10/19 03:17:13;;;;;;;35.27;23.53;;;;;;;;;;768767;180;919367;-62
2021/10/19 03:19:39;;;;;;;38.00;23.67;;;;;;;;;;772605;182;918270;-63
2021/10/19 03:22:05;;;;;;;40.50;24.40;;;;;;;;;;766253;182;919858;-64
2021/10/19 03:24:31;;;;;;;35.13;22.73;;;;;;;;;;762993;182;920639;-64
2021/10/19 03:26:57;;;;;;;47.13;23.00;;;;;;;;;;774798;182;918754;-65
2021/10/19 03:29:23;;;;;;;36.97;23.73;;;;;;;;;;765861;182;919580;-65
2021/10/19 03:31:48;;;;;;;40.00;23.90;;;;;;;;;;769605;182;920179;-65
2021/10/19 03:34:14;;;;;;;36.47;22.93;;;;;;;;;;767937;182;919127;-65
2021/10/19 03:36:40;;;;;;;36.77;24.23;;;;;;;;;;768927;183;920013;-65
2021/10/19 03:39:06;;;;;;;41.97;25.30;;;;;;;;;;765399;182;1122326;-65
2021/10/19 03:41:32;;;;;;;37.27;25.00;;;;;;;;;;766252;182;920133;-65
2021/10/19 03:43:58;;;;;;;42.00;24.53;;;;;;;;;;776526;182;912085;-66
2021/10/19 03:46:24;;;;;;;40.70;23.27;;;;;;;;;;768181;182;915419;-66
2021/10/19 03:48:49;;;;;;;35.63;22.90;;;;;;;;;;771243;180;919349;-65
2021/10/19 03:51:15;;;;;;;43.60;23.93;;;;;;;;;;776652;181;919395;-65
2021/10/19 03:53:41;;;;;;;45.33;26.33;;;;;;;;;;769805;182;919505;-66
2021/10/19 03:56:07;;;;;;;48.17;26.23;;;;;;;;;;764999;182;913998;-66
2021/10/19 03:58:33;;;;;;;43.20;25.52;;;;;;;;;;774732;182;919340;-65
2021/10/19 04:00:59;;;;;;;44.13;26.40;;;;;;;;;;768376;182;919917;-66
2021/10/19 04:03:25;;;;;;;39.33;24.30;;;;;;;;;;765050;182;1021413;-66
2021/10/19 04:05:51;;;;;;;52.33;25.00;;;;;;;;;;766891;182;919193;-66
2021/10/19 04:08:16;;;;;;;44.73;24.70;;;;;;;;;;774818;182;919490;-66
2021/10/19 04:10:42;;;;;;;41.70;26.45;;;;;;;;;;762530;181;919122;-66
2021/10/19 04:13:08;;;;;;;44.83;26.97;;;;;;;;;;762855;182;926351;-65
2021/10/19 04:15:34;;;;;;;39.13;25.67;;;;;;;;;;772864;182;919870;-66
2021/10/19 04:18:00;;;;;;;50.10;28.57;;;;;;;;;;770249;182;941447;-66
2021/10/19 04:20:25;;;;;;;44.80;26.40;;;;;;;;;;766302;182;943305;-66
2021/10/19 04:22:51;;;;;;;47.33;28.80;;;;;;;;;;774514;182;1005805;-67
2021/10/19 04:25:17;;;;;;;49.40;26.83;;;;;;;;;;764286;182;918605;-67
2021/10/19 04:27:43;;;;;;;44.20;26.53;;;;;;;;;;768642;182;919599;-66
2021/10/19 04:30:09;;;;;;;48.67;26.80;;;;;;;;;;765558;182;918588;-66
2021/10/19 04:32:35;;;;;;;48.83;29.67;;;;;;;;;;778170;179;918978;-67
2021/10/19 04:35:01;;;;;;;70.87;30.90;;;;;;;;;;767665;182;917280;-67
2021/10/19 04:37:26;;;;;;;54.43;30.23;;;;;;;;;;767819;182;919677;-67
2021/10/19 04:39:52;;;;;;;58.77;32.83;;;;;;;;;;768665;182;918865;-66
2021/10/19 04:42:18;;;;;;;50.87;30.23;;;;;;;;;;770033;182;918896;-67
2021/10/19 04:44:45;;;;;;;51.90;27.87;;;;;;;;;;765644;182;918585;-67
2021/10/19 04:47:10;;;;;;;53.53;28.95;;;;;;;;;;769251;180;923262;-67
2021/10/19 04:49:38;;;;;;;48.97;28.90;;;;;;;;;;761003;182;919289;-66
2021/10/19 04:52:01;;;;;;;54.40;28.50;;;;;;;;;;764479;182;922707;-67
2021/10/19 04:54:28;;;;;;;51.45;29.20;;;;;;;;;;768047;182;919604;-65
2021/10/19 04:56:53;;;;;;;43.00;26.10;;;;;;;;;;776545;179;907404;-66
2021/10/19 04:59:19;;;;;;;57.07;30.13;;;;;;;;;;769641;180;918858;-66
2021/10/19 05:01:45;;;;;;;72.33;32.27;;;;;;;;;;769923;181;919388;-66
2021/10/19 05:04:15;;;;;;;53.43;30.97;;;;;;;;;;775466;181;919688;-66
2021/10/19 05:06:37;;;;;;;48.07;28.80;;;;;;;;;;767294;182;919098;-66
2021/10/19 05:09:03;;;;;;;50.15;27.75;;;;;;;;;;771371;182;919148;-66
2021/10/19 05:11:29;;;;;;;59.17;30.07;;;;;;;;;;773689;182;920908;-67
2021/10/19 05:13:55;;;;;;;47.57;26.00;;;;;;;;;;770994;179;926623;-67
2021/10/19 05:16:20;;;;;;;48.05;26.58;;;;;;;;;;765754;180;919388;-67
2021/10/19 05:18:46;;;;;;;42.93;24.50;;;;;;;;;;774440;182;916537;-66
2021/10/19 05:21:12;;;;;;;40.33;23.60;;;;;;;;;;765521;182;915158;-66
2021/10/19 05:23:38;;;;;;;47.43;26.20;;;;;;;;;;767625;182;1120509;-69
2021/10/19 05:26:04;;;;;;;35.73;22.00;;;;;;;;;;767568;182;1000592;-66
2021/10/19 05:28:31;;;;;;;43.23;24.00;;;;;;;;;;775106;182;911484;-66
2021/10/19 05:30:56;;;;;;;51.77;22.93;;;;;;;;;;763043;182;919474;-65
2021/10/19 05:33:21;;;;;;;46.87;26.47;;;;;;;;;;769633;182;920130;-67
2021/10/19 05:35:47;;;;;;;48.47;24.70;;;;;;;;;;773114;182;919864;-67
2021/10/19 05:38:13;;;;;;;38.20;22.70;;;;;;;;;;768181;182;918281;-67
2021/10/19 05:40:39;;;;;;;39.00;24.57;;;;;;;;;;768805;182;924339;-67
2021/10/19 05:43:05;;;;;;;39.57;23.87;;;;;;;;;;772634;182;920195;-66
2021/10/19 05:45:31;;;;;;;40.73;25.83;;;;;;;;;;767919;182;956416;-67
2021/10/19 05:47:56;;;;;;;43.27;25.90;;;;;;;;;;768925;182;919749;-66
2021/10/19 05:50:22;;;;;;;47.20;28.53;;;;;;;;;;770254;182;918984;-66
2021/10/19 05:52:48;;;;;;;49.00;29.15;;;;;;;;;;764890;183;920066;-66
2021/10/19 05:55:14;;;;;;;49.33;28.40;;;;;;;;;;767583;182;922699;-66
2021/10/19 05:57:40;;;;;;;62.30;30.97;;;;;;;;;;768974;182;919626;-66
2021/10/19 06:00:06;;;;;;;51.07;29.90;;;;;;;;;;775679;182;998945;-64
2021/10/19 06:02:32;;;;;;;63.20;30.90;;;;;;;;;;774740;182;617490;-65
2021/10/19 06:04:58;;;;;;;57.30;30.90;;;;;;;;;;766341;182;921452;-64
2021/10/19 06:07:24;;;;;;;52.10;28.60;;;;;;;;;;773999;182;916608;-64
2021/10/19 06:09:49;;;;;;;54.97;31.03;;;;;;;;;;769101;182;919330;-64
2021/10/19 06:12:15;;;;;;;61.03;31.47;;;;;;;;;;769040;179;920462;-64
2021/10/19 06:14:41;;;;;;;68.45;33.90;;;;;;;;;;771927;181;919141;-61
2021/10/19 06:17:08;;;;;;;72.83;33.37;;;;;;;;;;775537;179;920569;-63
2021/10/19 06:19:33;;;;;;;75.33;33.17;;;;;;;;;;766981;182;921631;-63
2021/10/19 06:21:59;;;;;;;67.50;35.46;;;;;;;;;;770014;182;1020034;-63
2021/10/19 06:24:25;;;;;;;73.10;36.50;;;;;;;;;;770938;182;916065;-61
2021/10/19 06:26:51;;;;;;;73.30;36.53;;;;;;;;;;771176;182;922455;-63
2021/10/19 06:29:16;;;;;;;84.10;39.20;;;;;;;;;;761585;182;921444;-62
2021/10/19 06:31:42;;;;;;;82.10;39.97;;;;;;;;;;773101;182;920346;-62
2021/10/19 06:34:08;;;;;;;80.23;38.97;;;;;;;;;;768524;182;920185;-63
2021/10/19 06:36:34;;;;;;;80.23;39.43;;;;;;;;;;765754;182;1021717;-67
2021/10/19 06:39:00;;;;;;;81.47;37.50;;;;;;;;;;774210;182;919735;-62
2021/10/19 06:41:26;;;;;;;87.53;41.50;;;;;;;;;;769133;182;920232;-63
2021/10/19 06:43:51;;;;;;;95.17;45.80;;;;;;;;;;769091;182;936721;-63
2021/10/19 06:46:17;;;;;;;106.73;47.80;;;;;;;;;;770664;182;921891;-63
2021/10/19 06:48:43;;;;;;;108.57;46.43;;;;;;;;;;770884;182;918876;-63
2021/10/19 06:51:09;;;;;;;122.00;50.80;;;;;;;;;;765898;182;920310;-64
2021/10/19 06:53:35;;;;;;;108.20;50.80;;;;;;;;;;770010;182;914992;-63
2021/10/19 06:56:01;;;;;;;113.88;53.13;;;;;;;;;;775736;182;913541;-64
2021/10/19 06:58:27;;;;;;;95.57;41.03;;;;;;;;;;767124;182;919207;-63
2021/10/19 07:00:53;;;;;;;146.32;65.32;;;;;;;;;;767577;182;919250;-63
2021/10/19 07:03:18;;;;;;;112.77;58.07;;;;;;;;;;770394;182;919502;-64
2021/10/19 07:05:44;;;;;;;149.47;63.13;;;;;;;;;;768724;182;920224;-63
2021/10/19 07:08:10;;;;;;;110.53;54.10;;;;;;;;;;762066;182;920071;-63
2021/10/19 07:10:36;;;;;;;106.97;52.47;;;;;;;;;;767692;182;929338;-62
2021/10/19 07:13:02;;;;;;;91.97;43.13;;;;;;;;;;771946;182;1020131;-63
2021/10/19 07:15:34;;;;;;;95.03;44.20;;;;;;;;;;767419;182;918756;-64
2021/10/19 07:17:55;;;;;;;89.03;45.10;;;;;;;;;;768152;182;915812;-63
2021/10/19 07:20:21;;;;;;;91.05;39.92;;;;;;;;;;772336;182;917766;-62
2021/10/19 07:22:46;;;;;;;89.67;40.63;;;;;;;;;;770644;180;919582;-63
2021/10/19 07:25:12;;;;;;;84.63;42.70;;;;;;;;;;772097;181;918894;-63
2021/10/19 07:27:38;;;;;;;84.77;38.80;;;;;;;;;;772354;182;919950;-63
2021/10/19 07:30:05;;;;;;;85.93;40.07;;;;;;;;;;762696;181;922176;-64
2021/10/19 07:32:30;;;;;;;88.30;45.57;;;;;;;;;;769913;182;919910;-64
2021/10/19 07:34:56;;;;;;;98.60;47.07;;;;;;;;;;765808;182;919629;-64
2021/10/19 07:37:22;;;;;;;96.13;50.30;;;;;;;;;;773846;182;919381;-64
2021/10/19 07:39:48;;;;;;;135.83;71.10;;;;;;;;;;770314;182;926800;-63
2021/10/19 07:42:15;;;;;;;85.07;43.30;;;;;;;;;;767273;182;916317;-64
2021/10/19 07:44:40;;;;;;;114.00;51.70;;;;;;;;;;773115;182;919404;-64
2021/10/19 07:47:06;;;;;;;101.73;44.40;;;;;;;;;;768298;182;919577;-63
2021/10/19 07:49:31;;;;;;;152.30;90.80;;;;;;;;;;767007;182;920651;-65
2021/10/19 07:51:57;;;;;;;101.43;45.97;;;;;;;;;;772715;181;919395;-63
2021/10/19 07:54:23;;;;;;;91.45;44.55;;;;;;;;;;765855;182;919325;-63
2021/10/19 07:56:49;;;;;;;85.67;45.37;;;;;;;;;;764706;182;921911;-64
2021/10/19 07:59:16;;;;;;;103.62;46.75;;;;;;;;;;771170;182;920372;-62
2021/10/19 08:01:42;;;;;;;102.20;47.37;;;;;;;;;;764898;183;916484;-63
2021/10/19 08:04:07;;;;;;;108.67;49.30;;;;;;;;;;767856;182;919552;-63
2021/10/19 08:06:33;;;;;;;91.53;43.00;;;;;;;;;;767670;182;919310;-63
2021/10/19 08:09:00;;;;;;;86.03;40.77;;;;;;;;;;775312;182;915075;-63
2021/10/19 08:11:25;;;;;;;96.70;44.23;;;;;;;;;;769234;182;915583;-63
2021/10/19 08:13:54;;;;;;;77.60;40.50;;;;;;;;;;768331;182;915800;-63
2021/10/19 08:16:17;;;;;;;80.80;41.50;;;;;;;;;;767416;182;915731;-62
2021/10/19 08:18:42;;;;;;;92.77;39.70;;;;;;;;;;766110;182;1329358;-63
2021/10/19 08:21:09;;;;;;;78.20;42.80;;;;;;;;;;765816;180;920648;-62
2021/10/19 08:23:34;;;;;;;74.17;38.70;;;;;;;;;;771575;182;912398;-62
2021/10/19 08:26:00;;;;;;;70.80;34.33;;;;;;;;;;766771;182;936287;-63
2021/10/19 08:28:31;;;;;;;52.73;31.40;;;;;;;;;;768565;182;916990;-63
2021/10/19 08:30:54;;;;;;;47.10;27.33;;;;;;;;;;768552;182;901588;-64
2021/10/19 08:33:20;;;;;;;44.70;26.90;;;;;;;;;;774526;182;919563;-63
2021/10/19 08:35:46;;;;;;;48.10;30.40;;;;;;;;;;770273;180;921333;-63
2021/10/19 08:38:13;;;;;;;52.80;28.13;;;;;;;;;;769075;181;918602;-63
2021/10/19 08:40:38;;;;;;;32.40;23.30;;;;;;;;;;772967;182;917373;-62
2021/10/19 08:43:04;;;;;;;29.20;19.73;;;;;;;;;;768197;182;920264;-63
2021/10/19 08:45:30;;;;;;;34.00;23.10;;;;;;;;;;767996;182;916343;-62
2021/10/19 08:47:56;;;;;;;34.88;18.95;;;;;;;;;;770978;181;919721;-63
2021/10/19 08:50:21;;;;;;;34.97;22.60;;;;;;;;;;767277;182;919394;-63
2021/10/19 08:52:47;;;;;;;29.87;19.37;;;;;;;;;;770474;182;919295;-63
2021/10/19 08:55:13;;;;;;;32.78;18.10;;;;;;;;;;767991;182;919750;-63
2021/10/19 08:57:39;;;;;;;29.23;19.60;;;;;;;;;;769919;182;917877;-63
2021/10/19 09:00:05;;;;;;;25.77;18.90;;;;;;;;;;767023;182;1022040;-61
2021/10/19 09:02:33;;;;;;;27.63;18.30;;;;;;;;;;766816;182;918670;-63
2021/10/19 09:04:59;;;;;;;29.00;16.00;;;;;;;;;;770030;182;921632;-62
2021/10/19 09:07:27;;;;;;;23.87;15.13;;;;;;;;;;768305;182;940470;-62
2021/10/19 09:09:52;;;;;;;21.90;16.37;;;;;;;;;;769462;182;920253;-63
2021/10/19 09:12:18;;;;;;;22.70;14.50;;;;;;;;;;768327;182;918859;-62
2021/10/19 09:14:44;;;;;;;20.30;14.67;;;;;;;;;;778360;179;918443;-63
2021/10/19 09:17:10;;;;;;;18.17;14.07;;;;;;;;;;770528;182;918166;-63
2021/10/19 09:19:37;;;;;;;23.97;15.77;;;;;;;;;;767748;182;919636;-62
2021/10/19 09:22:02;;;;;;;17.33;13.80;;;;;;;;;;773154;182;935385;-63
2021/10/19 09:24:28;;;;;;;23.57;14.87;;;;;;;;;;765533;182;919725;-63
2021/10/19 09:27:06;;;;;;;25.37;14.53;;;;;;;;;;768105;182;920573;-64
2021/10/19 09:29:34;;;;;;;15.93;13.43;;;;;;;;;;769047;182;920873;-63
2021/10/19 09:31:59;;;;;;;21.67;13.90;;;;;;;;;;772812;182;921248;-64
2021/10/19 09:34:26;;;;;;;16.83;13.00;;;;;;;;;;767763;182;919020;-63
2021/10/19 09:36:52;;;;;;;17.63;12.77;;;;;;;;;;764240;182;921069;-64
2021/10/19 09:39:24;;;;;;;17.00;11.90;;;;;;;;;;770673;182;919348;-64
2021/10/19 09:41:50;;;;;;;20.17;12.00;;;;;;;;;;769333;182;919656;-64
2021/10/19 09:44:16;;;;;;;16.97;11.00;;;;;;;;;;762636;182;916729;-65
2021/10/19 09:46:41;;;;;;;17.93;11.87;;;;;;;;;;771015;180;916787;-62
2021/10/19 09:49:07;;;;;;;17.10;9.33;;;;;;;;;;773443;182;916569;-63
2021/10/19 09:51:33;;;;;;;10.37;7.70;;;;;;;;;;770475;182;923402;-64
2021/10/19 09:53:59;;;;;;;10.70;8.07;;;;;;;;;;769430;182;915033;-64
2021/10/19 09:56:25;;;;;;;12.50;8.40;;;;;;;;;;774059;182;920161;-64
2021/10/19 09:58:50;;;;;;;13.50;8.67;;;;;;;;;;765895;182;1021988;-64
2021/10/19 10:01:16;;;;;;;10.60;7.60;;;;;;;;;;767019;182;919328;-64
2021/10/19 10:03:44;;;;;;;9.83;7.00;;;;;;;;;;769936;182;921570;-64
2021/10/19 10:06:08;;;;;;;13.98;8.13;;;;;;;;;;770957;182;917395;-64
2021/10/19 10:08:34;;;;;;;9.27;6.73;;;;;;;;;;769798;182;918242;-64
2021/10/19 10:11:00;;;;;;;11.97;8.67;;;;;;;;;;768179;182;920173;-63
2021/10/19 10:13:25;;;;;;;8.23;6.65;;;;;;;;;;776656;182;908234;-66
2021/10/19 10:15:51;;;;;;;11.17;7.83;;;;;;;;;;770186;182;915776;-64
2021/10/19 10:18:17;;;;;;;12.20;7.43;;;;;;;;;;765942;182;916965;-64
2021/10/19 10:20:43;;;;;;;10.20;6.93;;;;;;;;;;771633;182;918424;-64
2021/10/19 10:23:15;;;;;;;10.73;6.97;;;;;;;;;;769173;182;921540;-62
2021/10/19 10:25:41;;;;;;;15.27;8.20;;;;;;;;;;767026;182;919321;-64
2021/10/19 10:28:08;;;;;;;10.87;7.00;;;;;;;;;;763042;182;919554;-64
2021/10/19 10:30:34;;;;;;;12.20;7.90;;;;;;;;;;774170;182;917761;-64
2021/10/19 10:33:04;;;;;;;9.47;7.07;;;;;;;;;;767058;182;920254;-64
2021/10/19 10:35:30;;;;;;;14.50;8.90;;;;;;;;;;768445;182;920321;-63
2021/10/19 10:37:56;;;;;;;12.05;7.70;;;;;;;;;;771058;182;919857;-63
2021/10/19 10:40:25;;;;;;;12.57;7.63;;;;;;;;;;771397;182;903268;-65
2021/10/19 10:42:51;;;;;;;16.20;8.83;;;;;;;;;;768113;182;921439;-64
2021/10/19 10:45:17;;;;;;;12.30;9.07;;;;;;;;;;767241;182;1021417;-64
2021/10/19 10:47:44;;;;;;;11.80;8.60;;;;;;;;;;767346;182;898296;-64
2021/10/19 10:50:10;;;;;;;11.80;8.53;;;;;;;;;;765715;182;1021360;-65
2021/10/19 10:52:35;;;;;;;10.93;8.20;;;;;;;;;;769106;182;637739;-66
2021/10/19 10:55:01;;;;;;;13.43;9.07;;;;;;;;;;776237;182;652321;-64
2021/10/19 10:57:27;;;;;;;12.87;9.30;;;;;;;;;;770581;182;917906;-64
2021/10/19 10:59:53;;;;;;;16.60;9.10;;;;;;;;;;774044;181;919454;-65
2021/10/19 11:02:19;;;;;;;10.20;8.07;;;;;;;;;;776118;181;622563;-65
2021/10/19 11:04:46;;;;;;;15.93;9.73;;;;;;;;;;779038;182;623040;-64
2021/10/19 11:07:11;;;;;;;12.57;8.33;;;;;;;;;;772851;182;918494;-66
2021/10/19 11:09:37;;;;;;;16.70;9.30;;;;;;;;;;772084;182;623023;-64
2021/10/19 11:12:03;;;;;;;11.50;7.73;;;;;;;;;;773457;182;619005;-65
2021/10/19 11:14:29;;;;;;;12.03;8.97;;;;;;;;;;773222;182;627861;-65
2021/10/19 11:16:55;;;;;;;10.73;7.70;;;;;;;;;;772882;182;618680;-65
2021/10/19 11:19:22;;;;;;;10.03;6.70;;;;;;;;;;776855;182;618947;-64
2021/10/19 11:21:47;;;;;;;17.87;8.27;;;;;;;;;;769295;182;925916;-66
2021/10/19 11:24:12;;;;;;;9.60;7.30;;;;;;;;;;771086;182;619914;-64
2021/10/19 11:26:38;;;;;;;10.13;6.13;;;;;;;;;;775586;182;634682;-64
2021/10/19 11:29:04;;;;;;;11.63;7.70;;;;;;;;;;778608;182;624610;-65
2021/10/19 11:31:38;;;;;;;11.80;7.20;;;;;;;;;;772219;182;919368;-65
2021/10/19 11:34:04;;;;;;;9.10;6.50;;;;;;;;;;772912;182;657476;-65
2021/10/19 11:36:30;;;;;;;10.50;6.93;;;;;;;;;;775534;182;622603;-66
2021/10/19 11:38:55;;;;;;;12.67;6.63;;;;;;;;;;771226;182;919550;-64
2021/10/19 11:41:21;;;;;;;10.60;6.77;;;;;;;;;;767544;182;919377;-64
2021/10/19 11:43:47;;;;;;;11.07;7.70;;;;;;;;;;771951;181;626070;-65
2021/10/19 11:46:13;;;;;;;11.07;7.40;;;;;;;;;;772550;182;639281;-68
2021/10/19 11:48:39;;;;;;;9.70;6.43;;;;;;;;;;768408;182;634180;-65
2021/10/19 11:51:08;;;;;;;11.73;7.20;;;;;;;;;;770544;182;629966;-67
2021/10/19 11:53:31;;;;;;;12.33;7.30;;;;;;;;;;773255;182;631632;-65
2021/10/19 11:56:00;;;;;;;14.07;9.07;;;;;;;;;;768811;182;728225;-65
2021/10/19 11:58:23;;;;;;;11.87;7.47;;;;;;;;;;771191;182;634596;-65
2021/10/19 12:00:49;;;;;;;9.03;6.43;;;;;;;;;;772812;182;623616;-65
2021/10/19 12:03:15;;;;;;;10.63;6.77;;;;;;;;;;772763;182;613543;-66
2021/10/19 12:05:40;;;;;;;12.50;8.77;;;;;;;;;;770972;182;748943;-65
2021/10/19 12:08:06;;;;;;;12.73;7.03;;;;;;;;;;767493;182;921407;-65
2021/10/19 12:10:32;;;;;;;11.80;7.20;;;;;;;;;;779174;181;650295;-65
2021/10/19 12:13:02;;;;;;;12.87;6.67;;;;;;;;;;774211;181;630277;-66
2021/10/19 12:15:28;;;;;;;11.50;7.27;;;;;;;;;;773810;182;635396;-65
2021/10/19 12:17:54;;;;;;;10.83;6.90;;;;;;;;;;774779;182;618153;-64
2021/10/19 12:20:20;;;;;;;10.00;6.70;;;;;;;;;;772036;182;680288;-65
2021/10/19 12:22:46;;;;;;;9.37;7.17;;;;;;;;;;772110;182;919192;-65
2021/10/19 12:25:12;;;;;;;10.18;7.80;;;;;;;;;;771500;182;918410;-64
2021/10/19 12:27:38;;;;;;;8.60;6.90;;;;;;;;;;780984;179;631922;-64
2021/10/19 12:30:04;;;;;;;10.50;7.80;;;;;;;;;;772539;182;641823;-65
2021/10/19 12:32:30;;;;;;;10.00;6.53;;;;;;;;;;772504;182;660293;-65
2021/10/19 12:34:56;;;;;;;10.57;7.50;;;;;;;;;;778785;182;640414;-65
2021/10/19 12:37:22;;;;;;;15.80;6.80;;;;;;;;;;773392;182;621523;-66
2021/10/19 12:39:48;;;;;;;9.77;7.13;;;;;;;;;;773780;182;639487;-65
2021/10/19 12:42:13;;;;;;;10.10;7.33;;;;;;;;;;777490;181;629270;-66
2021/10/19 12:44:39;;;;;;;11.03;8.23;;;;;;;;;;773114;182;687029;-65
2021/10/19 12:47:06;;;;;;;12.20;7.70;;;;;;;;;;772626;182;620104;-65
2021/10/19 12:49:31;;;;;;;13.17;6.70;;;;;;;;;;771853;181;638339;-65
2021/10/19 12:51:57;;;;;;;10.10;6.13;;;;;;;;;;765522;183;630807;-65
2021/10/19 12:54:23;;;;;;;9.23;6.10;;;;;;;;;;768760;182;635987;-66
2021/10/19 12:56:48;;;;;;;10.00;7.30;;;;;;;;;;771940;182;630417;-64
2021/10/19 12:59:15;;;;;;;8.43;6.77;;;;;;;;;;777070;182;620872;-67
2021/10/19 13:01:40;;;;;;;14.53;6.57;;;;;;;;;;770872;182;630274;-65
2021/10/19 13:04:06;;;;;;;11.20;7.07;;;;;;;;;;772255;182;621744;-65
2021/10/19 13:06:32;;;;;;;9.63;7.40;;;;;;;;;;774088;182;621187;-65
2021/10/19 13:08:58;;;;;;;8.27;6.63;;;;;;;;;;773444;182;617411;-66
2021/10/19 13:11:23;;;;;;;10.90;7.60;;;;;;;;;;770252;180;622829;-65
2021/10/19 13:13:49;;;;;;;9.90;7.03;;;;;;;;;;776295;182;618120;-64
2021/10/19 13:16:15;;;;;;;9.07;6.67;;;;;;;;;;772688;182;661299;-66
2021/10/19 13:18:41;;;;;;;12.20;7.63;;;;;;;;;;771879;182;627722;-65
2021/10/19 13:21:07;;;;;;;10.57;7.87;;;;;;;;;;776741;180;624037;-65
2021/10/19 13:23:34;;;;;;;12.10;6.73;;;;;;;;;;778246;181;620098;-66
2021/10/19 13:25:59;;;;;;;11.10;6.33;;;;;;;;;;772974;182;633607;-65
2021/10/19 13:28:24;;;;;;;11.07;7.40;;;;;;;;;;772844;182;623479;-65
2021/10/19 13:30:50;;;;;;;7.33;6.23;;;;;;;;;;776276;182;614806;-65
2021/10/19 13:33:16;;;;;;;15.63;7.87;;;;;;;;;;768878;182;636353;-66
2021/10/19 13:35:42;;;;;;;11.33;8.57;;;;;;;;;;771024;182;918997;-66
2021/10/19 13:38:08;;;;;;;9.75;7.20;;;;;;;;;;773390;182;932051;-65
2021/10/19 13:40:34;;;;;;;14.37;6.93;;;;;;;;;;770401;182;816744;-65
2021/10/19 13:43:01;;;;;;;9.40;6.37;;;;;;;;;;773053;182;638080;-66
2021/10/19 13:45:25;;;;;;;7.83;6.10;;;;;;;;;;772713;182;631575;-64
2021/10/19 13:47:53;;;;;;;10.33;6.13;;;;;;;;;;775498;182;626108;-68
2021/10/19 13:50:17;;;;;;;10.97;6.63;;;;;;;;;;768895;182;920182;-69
2021/10/19 13:52:43;;;;;;;10.93;7.20;;;;;;;;;;770783;182;628918;-65
2021/10/19 13:55:09;;;;;;;9.73;6.50;;;;;;;;;;775896;182;656008;-65
2021/10/19 13:57:35;;;;;;;10.50;7.77;;;;;;;;;;771176;182;634785;-65
2021/10/19 14:00:02;;;;;;;11.13;7.97;;;;;;;;;;771538;182;622334;-66
2021/10/19 14:02:27;;;;;;;9.70;6.93;;;;;;;;;;773418;182;633820;-65